createdAt,value
2018-07-16T00:00:41.496Z,18.60
2018-07-16T00:16:56.417Z,18.40
2018-07-16T00:25:04.172Z,18.20
2018-07-16T00:29:08.072Z,18.20
2018-07-16T00:33:11.939Z,18.20
2018-07-16T00:37:15.932Z,18.10
2018-07-16T00:41:19.807Z,18.00
2018-07-16T00:45:23.723Z,17.90
2018-07-16T00:57:34.742Z,17.80
2018-07-16T01:01:38.624Z,17.80
2018-07-16T01:38:11.953Z,17.30
2018-07-16T01:50:23.113Z,17.20
2018-07-16T02:10:41.680Z,17.10
2018-07-16T02:14:45.625Z,17.00
2018-07-16T02:26:56.765Z,16.80
2018-07-16T02:31:00.672Z,16.80
2018-07-16T02:39:08.428Z,16.80
2018-07-16T02:47:15.917Z,16.80
2018-07-16T02:55:23.376Z,16.70
2018-07-16T03:07:34.589Z,16.60
2018-07-16T03:11:38.476Z,16.60
2018-07-16T03:31:56.877Z,16.50
2018-07-16T03:44:08.861Z,16.50
2018-07-16T03:52:16.296Z,16.50
2018-07-16T03:56:20.175Z,16.50
2018-07-16T04:00:24.346Z,16.60
2018-07-16T04:16:38.943Z,16.70
2018-07-16T04:20:43.277Z,16.70
2018-07-16T04:24:47.204Z,16.70
2018-07-16T04:28:51.401Z,16.80
2018-07-16T04:41:02.607Z,16.90
2018-07-16T04:53:13.589Z,17.40
2018-07-16T05:01:21.017Z,19.00
2018-07-16T05:13:32.580Z,19.50
2018-07-16T05:17:36.453Z,20.00
2018-07-16T05:21:40.369Z,20.20
2018-07-16T05:25:44.242Z,20.10
2018-07-16T05:41:59.216Z,20.00
2018-07-16T05:46:03.112Z,19.90
2018-07-16T06:22:35.476Z,21.20
2018-07-16T06:30:43.174Z,27.30
2018-07-16T06:34:47.108Z,29.90
2018-07-16T06:55:05.625Z,37.10
2018-07-16T06:59:09.504Z,37.30
2018-07-16T07:03:13.443Z,35.80
2018-07-16T07:11:20.965Z,33.30
2018-07-16T07:27:35.544Z,29.70
2018-07-16T07:39:46.632Z,28.90
2018-07-16T07:43:50.506Z,28.90
2018-07-16T07:51:57.932Z,28.70
2018-07-16T08:00:06.238Z,28.70
2018-07-16T08:08:13.917Z,29.30
2018-07-16T08:12:17.867Z,29.10
2018-07-16T08:24:28.949Z,28.70
2018-07-16T08:44:47.229Z,28.30
2018-07-16T08:56:58.163Z,28.20
2018-07-16T09:01:02.066Z,28.10
2018-07-16T09:29:27.357Z,28.30
2018-07-16T09:33:31.452Z,28.50
2018-07-16T09:45:42.486Z,28.60
2018-07-16T09:49:46.372Z,28.70
2018-07-16T09:57:53.789Z,28.90
2018-07-16T10:06:06.804Z,29.10
2018-07-16T10:18:17.756Z,29.40
2018-07-16T10:22:21.652Z,29.40
2018-07-16T10:26:25.512Z,29.30
2018-07-16T10:34:33.072Z,29.20
2018-07-16T10:38:36.983Z,29.10
2018-07-16T10:46:44.518Z,28.80
2018-07-16T10:58:55.559Z,29.20
2018-07-16T11:02:59.527Z,29.20
2018-07-16T11:07:03.308Z,29.40
2018-07-16T11:15:10.750Z,29.60
2018-07-16T11:19:16.030Z,29.60
2018-07-16T11:35:30.881Z,29.70
2018-07-16T11:43:38.448Z,29.80
2018-07-16T11:47:42.401Z,30.00
2018-07-16T11:51:46.360Z,30.00
2018-07-16T11:55:50.324Z,29.90
2018-07-16T11:59:54.454Z,30.00
2018-07-16T12:08:36.850Z,30.10
2018-07-16T12:20:47.925Z,29.90
2018-07-16T13:05:19.582Z,29.20
2018-07-16T13:13:27.325Z,29.50
2018-07-16T13:25:38.827Z,29.60
2018-07-16T13:29:42.854Z,29.40
2018-07-16T13:41:54.667Z,29.30
2018-07-16T14:14:25.018Z,29.70
2018-07-16T14:18:29.351Z,29.70
2018-07-16T14:22:33.489Z,29.70
2018-07-16T14:30:41.097Z,29.70
2018-07-16T14:34:45.703Z,29.60
2018-07-16T14:38:49.875Z,29.70
2018-07-16T14:42:53.805Z,29.70
2018-07-16T14:55:05.306Z,29.50
2018-07-16T14:59:09.393Z,29.40
2018-07-16T15:03:13.576Z,29.40
2018-07-16T15:15:25.650Z,29.10
2018-07-16T15:19:29.706Z,29.00
2018-07-16T15:23:33.809Z,29.00
2018-07-16T15:27:37.757Z,29.00
2018-07-16T15:35:47.004Z,28.90
2018-07-16T16:00:09.318Z,28.40
2018-07-16T16:04:15.686Z,28.40
2018-07-16T16:08:20.000Z,28.40
2018-07-16T16:16:27.767Z,28.40
2018-07-16T16:28:39.082Z,28.40
2018-07-16T16:32:43.144Z,28.40
2018-07-16T16:40:51.153Z,28.40
2018-07-16T16:44:55.537Z,28.50
2018-07-16T16:49:00.531Z,28.60
2018-07-16T17:01:13.293Z,28.60
2018-07-16T17:09:21.051Z,28.60
2018-07-16T17:13:25.078Z,28.50
2018-07-16T17:33:43.954Z,28.10
2018-07-16T17:37:48.178Z,27.90
2018-07-16T17:54:02.353Z,27.50
2018-07-16T18:14:25.415Z,27.40
2018-07-16T18:18:29.592Z,27.40
2018-07-16T18:22:33.882Z,27.30
2018-07-16T18:26:37.915Z,27.20
2018-07-16T18:30:42.202Z,27.10
2018-07-16T18:42:54.367Z,26.70
2018-07-16T18:46:58.647Z,26.60
2018-07-16T18:51:03.000Z,26.50
2018-07-16T18:55:07.036Z,26.40
2018-07-16T19:07:21.708Z,26.00
2018-07-16T19:35:49.015Z,25.30
2018-07-16T19:39:53.093Z,25.10
2018-07-16T19:43:57.134Z,25.00
2018-07-16T19:56:08.588Z,24.50
2018-07-16T20:00:13.218Z,24.40
2018-07-16T20:49:13.031Z,23.00
2018-07-16T21:09:33.689Z,22.50
2018-07-16T21:13:37.945Z,22.50
2018-07-16T21:17:42.266Z,22.30
2018-07-16T21:21:47.121Z,22.30
2018-07-16T21:38:03.386Z,21.80
2018-07-16T21:42:08.035Z,21.80
2018-07-16T22:02:29.784Z,21.30
2018-07-16T22:06:34.146Z,21.30
2018-07-16T22:10:38.518Z,21.20
2018-07-16T22:14:43.146Z,21.10
2018-07-16T22:31:02.584Z,20.60
2018-07-16T22:43:21.761Z,20.20
2018-07-16T22:55:34.885Z,19.80
2018-07-16T23:03:43.394Z,19.70
2018-07-16T23:36:19.433Z,19.10
2018-07-16T23:48:31.364Z,19.00
